sensor_id;sensor_type;location;lat;lon;timestamp;P1;durP1;ratioP1;P2;durP2;ratioP2
72635;SDS011;60679;48.888;15.544;2023-05-07T00:00:42;3.33;;;1.00;;
72635;SDS011;60679;48.888;15.544;2023-05-07T00:03:07;3.50;;;1.20;;
72635;SDS011;60679;48.888;15.544;2023-05-07T00:05:33;2.95;;;0.95;;
72635;SDS011;60679;48.888;15.544;2023-05-07T00:07:58;3.00;;;0.80;;
72635;SDS011;60679;48.888;15.544;2023-05-07T00:10:24;3.63;;;1.60;;
72635;SDS011;60679;48.888;15.544;2023-05-07T00:12:50;4.53;;;1.17;;
72635;SDS011;60679;48.888;15.544;2023-05-07T00:15:15;2.97;;;0.70;;
72635;SDS011;60679;48.888;15.544;2023-05-07T00:17:41;3.20;;;0.80;;
72635;SDS011;60679;48.888;15.544;2023-05-07T00:20:06;3.17;;;0.90;;
72635;SDS011;60679;48.888;15.544;2023-05-07T00:22:32;2.47;;;0.50;;
72635;SDS011;60679;48.888;15.544;2023-05-07T00:24:58;3.30;;;0.90;;
72635;SDS011;60679;48.888;15.544;2023-05-07T00:27:24;3.43;;;1.03;;
72635;SDS011;60679;48.888;15.544;2023-05-07T00:29:49;5.78;;;1.60;;
72635;SDS011;60679;48.888;15.544;2023-05-07T00:32:15;3.03;;;0.80;;
72635;SDS011;60679;48.888;15.544;2023-05-07T00:34:40;3.50;;;1.00;;
72635;SDS011;60679;48.888;15.544;2023-05-07T00:37:06;4.27;;;1.17;;
72635;SDS011;60679;48.888;15.544;2023-05-07T00:39:34;3.43;;;1.37;;
72635;SDS011;60679;48.888;15.544;2023-05-07T00:42:00;3.25;;;0.98;;
72635;SDS011;60679;48.888;15.544;2023-05-07T00:44:26;3.70;;;1.47;;
72635;SDS011;60679;48.888;15.544;2023-05-07T00:46:53;2.53;;;0.65;;
72635;SDS011;60679;48.888;15.544;2023-05-07T00:49:19;5.05;;;1.40;;
72635;SDS011;60679;48.888;15.544;2023-05-07T00:51:45;3.03;;;0.93;;
72635;SDS011;60679;48.888;15.544;2023-05-07T00:54:11;4.67;;;1.60;;
72635;SDS011;60679;48.888;15.544;2023-05-07T00:56:38;4.45;;;1.33;;
72635;SDS011;60679;48.888;15.544;2023-05-07T00:59:04;2.90;;;0.75;;
72635;SDS011;60679;48.888;15.544;2023-05-07T01:01:31;3.83;;;1.23;;
72635;SDS011;60679;48.888;15.544;2023-05-07T01:03:56;4.40;;;1.70;;
72635;SDS011;60679;48.888;15.544;2023-05-07T01:06:22;4.27;;;1.47;;
72635;SDS011;60679;48.888;15.544;2023-05-07T01:08:50;3.38;;;1.48;;
72635;SDS011;60679;48.888;15.544;2023-05-07T01:11:17;2.65;;;0.65;;
72635;SDS011;60679;48.888;15.544;2023-05-07T01:13:45;3.67;;;1.77;;
72635;SDS011;60679;48.888;15.544;2023-05-07T01:16:11;3.03;;;0.80;;
72635;SDS011;60679;48.888;15.544;2023-05-07T01:18:37;6.13;;;1.25;;
72635;SDS011;60679;48.888;15.544;2023-05-07T01:21:03;4.73;;;1.17;;
72635;SDS011;60679;48.888;15.544;2023-05-07T01:23:29;3.88;;;1.50;;
72635;SDS011;60679;48.888;15.544;2023-05-07T01:25:55;4.10;;;1.77;;
72635;SDS011;60679;48.888;15.544;2023-05-07T01:28:21;4.60;;;1.80;;
72635;SDS011;60679;48.888;15.544;2023-05-07T01:30:49;5.83;;;1.77;;
72635;SDS011;60679;48.888;15.544;2023-05-07T01:33:20;2.80;;;0.70;;
72635;SDS011;60679;48.888;15.544;2023-05-07T01:35:47;2.83;;;0.93;;
72635;SDS011;60679;48.888;15.544;2023-05-07T01:38:18;5.88;;;1.80;;
72635;SDS011;60679;48.888;15.544;2023-05-07T01:40:46;2.88;;;1.02;;
72635;SDS011;60679;48.888;15.544;2023-05-07T01:43:12;4.87;;;1.27;;
72635;SDS011;60679;48.888;15.544;2023-05-07T01:45:37;3.33;;;1.63;;
72635;SDS011;60679;48.888;15.544;2023-05-07T01:48:04;3.40;;;1.03;;
72635;SDS011;60679;48.888;15.544;2023-05-07T01:50:31;3.38;;;1.38;;
72635;SDS011;60679;48.888;15.544;2023-05-07T01:52:57;4.30;;;0.95;;
72635;SDS011;60679;48.888;15.544;2023-05-07T01:55:22;3.53;;;1.30;;
72635;SDS011;60679;48.888;15.544;2023-05-07T01:57:48;2.58;;;0.60;;
72635;SDS011;60679;48.888;15.544;2023-05-07T02:00:14;3.27;;;1.43;;
72635;SDS011;60679;48.888;15.544;2023-05-07T02:02:39;3.67;;;1.50;;
72635;SDS011;60679;48.888;15.544;2023-05-07T02:05:05;2.50;;;0.63;;
72635;SDS011;60679;48.888;15.544;2023-05-07T02:07:31;3.80;;;1.02;;
72635;SDS011;60679;48.888;15.544;2023-05-07T02:09:56;3.87;;;1.47;;
72635;SDS011;60679;48.888;15.544;2023-05-07T02:12:22;2.90;;;0.90;;
72635;SDS011;60679;48.888;15.544;2023-05-07T02:14:47;4.53;;;0.80;;
72635;SDS011;60679;48.888;15.544;2023-05-07T02:17:13;3.13;;;1.03;;
72635;SDS011;60679;48.888;15.544;2023-05-07T02:19:38;3.30;;;1.00;;
72635;SDS011;60679;48.888;15.544;2023-05-07T02:22:04;2.47;;;0.60;;
72635;SDS011;60679;48.888;15.544;2023-05-07T02:24:29;4.00;;;1.20;;
72635;SDS011;60679;48.888;15.544;2023-05-07T02:26:55;4.00;;;1.53;;
72635;SDS011;60679;48.888;15.544;2023-05-07T02:29:23;4.30;;;2.00;;
72635;SDS011;60679;48.888;15.544;2023-05-07T02:31:49;4.53;;;2.03;;
72635;SDS011;60679;48.888;15.544;2023-05-07T02:34:16;3.13;;;0.80;;
72635;SDS011;60679;48.888;15.544;2023-05-07T02:36:45;3.75;;;1.60;;
72635;SDS011;60679;48.888;15.544;2023-05-07T02:39:13;4.43;;;1.37;;
72635;SDS011;60679;48.888;15.544;2023-05-07T02:41:39;3.33;;;1.05;;
72635;SDS011;60679;48.888;15.544;2023-05-07T02:44:04;4.07;;;1.60;;
72635;SDS011;60679;48.888;15.544;2023-05-07T02:46:30;10.45;;;1.75;;
72635;SDS011;60679;48.888;15.544;2023-05-07T02:48:55;3.43;;;0.97;;
72635;SDS011;60679;48.888;15.544;2023-05-07T02:51:21;5.03;;;2.13;;
72635;SDS011;60679;48.888;15.544;2023-05-07T02:53:47;3.70;;;1.55;;
72635;SDS011;60679;48.888;15.544;2023-05-07T02:56:12;3.50;;;1.27;;
72635;SDS011;60679;48.888;15.544;2023-05-07T02:58:40;3.40;;;1.10;;
72635;SDS011;60679;48.888;15.544;2023-05-07T03:01:07;4.28;;;1.67;;
72635;SDS011;60679;48.888;15.544;2023-05-07T03:03:33;3.50;;;1.20;;
72635;SDS011;60679;48.888;15.544;2023-05-07T03:05:59;3.08;;;1.08;;
72635;SDS011;60679;48.888;15.544;2023-05-07T03:08:24;4.20;;;1.73;;
72635;SDS011;60679;48.888;15.544;2023-05-07T03:10:50;3.23;;;0.90;;
72635;SDS011;60679;48.888;15.544;2023-05-07T03:13:18;4.80;;;1.10;;
72635;SDS011;60679;48.888;15.544;2023-05-07T03:15:43;4.50;;;1.00;;
72635;SDS011;60679;48.888;15.544;2023-05-07T03:18:09;4.03;;;1.73;;
72635;SDS011;60679;48.888;15.544;2023-05-07T03:20:34;3.30;;;1.23;;
72635;SDS011;60679;48.888;15.544;2023-05-07T03:23:01;4.18;;;1.27;;
72635;SDS011;60679;48.888;15.544;2023-05-07T03:25:27;3.40;;;1.13;;
72635;SDS011;60679;48.888;15.544;2023-05-07T03:27:54;2.67;;;0.80;;
72635;SDS011;60679;48.888;15.544;2023-05-07T03:30:20;3.23;;;1.23;;
72635;SDS011;60679;48.888;15.544;2023-05-07T03:32:46;3.87;;;1.20;;
72635;SDS011;60679;48.888;15.544;2023-05-07T03:35:12;6.33;;;2.63;;
72635;SDS011;60679;48.888;15.544;2023-05-07T03:37:37;3.77;;;1.50;;
72635;SDS011;60679;48.888;15.544;2023-05-07T03:40:06;4.40;;;2.53;;
72635;SDS011;60679;48.888;15.544;2023-05-07T03:42:33;2.80;;;0.82;;
72635;SDS011;60679;48.888;15.544;2023-05-07T03:44:58;4.03;;;1.40;;
72635;SDS011;60679;48.888;15.544;2023-05-07T03:47:26;4.10;;;1.30;;
72635;SDS011;60679;48.888;15.544;2023-05-07T03:49:52;7.60;;;1.42;;
72635;SDS011;60679;48.888;15.544;2023-05-07T03:52:18;3.95;;;1.23;;
72635;SDS011;60679;48.888;15.544;2023-05-07T03:54:48;4.13;;;1.83;;
72635;SDS011;60679;48.888;15.544;2023-05-07T03:57:14;3.60;;;1.23;;
72635;SDS011;60679;48.888;15.544;2023-05-07T03:59:40;3.05;;;0.88;;
72635;SDS011;60679;48.888;15.544;2023-05-07T04:02:06;4.73;;;1.57;;
72635;SDS011;60679;48.888;15.544;2023-05-07T04:04:31;4.23;;;1.47;;
72635;SDS011;60679;48.888;15.544;2023-05-07T04:06:57;3.00;;;0.90;;
72635;SDS011;60679;48.888;15.544;2023-05-07T04:09:24;5.88;;;2.22;;
72635;SDS011;60679;48.888;15.544;2023-05-07T04:11:52;3.40;;;1.13;;
72635;SDS011;60679;48.888;15.544;2023-05-07T04:14:17;3.70;;;1.73;;
72635;SDS011;60679;48.888;15.544;2023-05-07T04:16:43;4.33;;;1.87;;
72635;SDS011;60679;48.888;15.544;2023-05-07T04:19:08;4.73;;;2.17;;
72635;SDS011;60679;48.888;15.544;2023-05-07T04:21:34;3.30;;;1.20;;
72635;SDS011;60679;48.888;15.544;2023-05-07T04:23:59;2.90;;;0.90;;
72635;SDS011;60679;48.888;15.544;2023-05-07T04:26:24;3.83;;;1.80;;
72635;SDS011;60679;48.888;15.544;2023-05-07T04:28:50;3.97;;;1.63;;
72635;SDS011;60679;48.888;15.544;2023-05-07T04:31:15;3.17;;;1.00;;
72635;SDS011;60679;48.888;15.544;2023-05-07T04:33:41;3.55;;;1.45;;
72635;SDS011;60679;48.888;15.544;2023-05-07T04:36:06;3.30;;;1.07;;
72635;SDS011;60679;48.888;15.544;2023-05-07T04:38:32;3.28;;;1.15;;
72635;SDS011;60679;48.888;15.544;2023-05-07T04:41:04;4.73;;;1.67;;
72635;SDS011;60679;48.888;15.544;2023-05-07T04:43:33;3.38;;;1.20;;
72635;SDS011;60679;48.888;15.544;2023-05-07T04:45:58;6.27;;;1.83;;
72635;SDS011;60679;48.888;15.544;2023-05-07T04:48:24;3.53;;;1.23;;
72635;SDS011;60679;48.888;15.544;2023-05-07T04:50:50;10.03;;;2.67;;
72635;SDS011;60679;48.888;15.544;2023-05-07T04:53:16;3.72;;;1.67;;
72635;SDS011;60679;48.888;15.544;2023-05-07T04:55:42;9.02;;;2.22;;
72635;SDS011;60679;48.888;15.544;2023-05-07T04:58:07;4.10;;;1.87;;
72635;SDS011;60679;48.888;15.544;2023-05-07T05:00:33;3.10;;;1.10;;
72635;SDS011;60679;48.888;15.544;2023-05-07T05:02:58;3.73;;;1.43;;
72635;SDS011;60679;48.888;15.544;2023-05-07T05:05:24;3.90;;;1.70;;
72635;SDS011;60679;48.888;15.544;2023-05-07T05:07:49;3.03;;;0.87;;
72635;SDS011;60679;48.888;15.544;2023-05-07T05:10:16;4.72;;;2.40;;
72635;SDS011;60679;48.888;15.544;2023-05-07T05:12:44;3.72;;;1.23;;
72635;SDS011;60679;48.888;15.544;2023-05-07T05:15:11;4.53;;;1.63;;
72635;SDS011;60679;48.888;15.544;2023-05-07T05:17:37;3.47;;;1.25;;
72635;SDS011;60679;48.888;15.544;2023-05-07T05:20:03;5.43;;;1.87;;
72635;SDS011;60679;48.888;15.544;2023-05-07T05:22:29;3.28;;;0.98;;
72635;SDS011;60679;48.888;15.544;2023-05-07T05:24:56;3.83;;;1.63;;
72635;SDS011;60679;48.888;15.544;2023-05-07T05:27:22;3.40;;;1.50;;
72635;SDS011;60679;48.888;15.544;2023-05-07T05:29:50;5.00;;;2.10;;
72635;SDS011;60679;48.888;15.544;2023-05-07T05:32:16;5.85;;;1.80;;
72635;SDS011;60679;48.888;15.544;2023-05-07T05:34:41;3.10;;;1.00;;
72635;SDS011;60679;48.888;15.544;2023-05-07T05:37:06;3.93;;;1.53;;
72635;SDS011;60679;48.888;15.544;2023-05-07T05:39:32;5.70;;;2.00;;
72635;SDS011;60679;48.888;15.544;2023-05-07T05:41:57;3.73;;;1.80;;
72635;SDS011;60679;48.888;15.544;2023-05-07T05:44:22;3.10;;;0.93;;
72635;SDS011;60679;48.888;15.544;2023-05-07T05:46:48;3.70;;;1.17;;
72635;SDS011;60679;48.888;15.544;2023-05-07T05:49:16;7.18;;;1.63;;
72635;SDS011;60679;48.888;15.544;2023-05-07T05:51:41;3.30;;;1.10;;
72635;SDS011;60679;48.888;15.544;2023-05-07T05:54:07;4.18;;;1.45;;
72635;SDS011;60679;48.888;15.544;2023-05-07T05:56:33;5.20;;;2.10;;
72635;SDS011;60679;48.888;15.544;2023-05-07T05:58:58;5.47;;;2.30;;
72635;SDS011;60679;48.888;15.544;2023-05-07T06:01:26;4.97;;;2.03;;
72635;SDS011;60679;48.888;15.544;2023-05-07T06:03:52;5.10;;;1.33;;
72635;SDS011;60679;48.888;15.544;2023-05-07T06:06:17;6.80;;;1.87;;
72635;SDS011;60679;48.888;15.544;2023-05-07T06:08:42;5.50;;;2.20;;
72635;SDS011;60679;48.888;15.544;2023-05-07T06:11:08;4.85;;;2.40;;
72635;SDS011;60679;48.888;15.544;2023-05-07T06:13:33;6.93;;;1.87;;
72635;SDS011;60679;48.888;15.544;2023-05-07T06:15:59;3.43;;;1.53;;
72635;SDS011;60679;48.888;15.544;2023-05-07T06:18:27;3.35;;;1.35;;
72635;SDS011;60679;48.888;15.544;2023-05-07T06:20:52;5.53;;;2.47;;
72635;SDS011;60679;48.888;15.544;2023-05-07T06:23:18;5.53;;;2.20;;
72635;SDS011;60679;48.888;15.544;2023-05-07T06:25:52;9.13;;;4.25;;
72635;SDS011;60679;48.888;15.544;2023-05-07T06:28:18;5.05;;;2.80;;
72635;SDS011;60679;48.888;15.544;2023-05-07T06:30:43;5.07;;;1.83;;
72635;SDS011;60679;48.888;15.544;2023-05-07T06:33:09;7.77;;;2.80;;
72635;SDS011;60679;48.888;15.544;2023-05-07T06:35:37;4.30;;;1.77;;
72635;SDS011;60679;48.888;15.544;2023-05-07T06:38:02;4.00;;;1.53;;
72635;SDS011;60679;48.888;15.544;2023-05-07T06:40:28;5.03;;;2.17;;
72635;SDS011;60679;48.888;15.544;2023-05-07T06:42:53;6.63;;;2.17;;
72635;SDS011;60679;48.888;15.544;2023-05-07T06:45:19;3.95;;;1.70;;
72635;SDS011;60679;48.888;15.544;2023-05-07T06:47:45;5.93;;;1.97;;
72635;SDS011;60679;48.888;15.544;2023-05-07T06:50:11;6.43;;;2.70;;
72635;SDS011;60679;48.888;15.544;2023-05-07T06:52:36;4.80;;;2.10;;
72635;SDS011;60679;48.888;15.544;2023-05-07T06:55:02;6.25;;;2.17;;
72635;SDS011;60679;48.888;15.544;2023-05-07T06:57:27;5.67;;;2.27;;
72635;SDS011;60679;48.888;15.544;2023-05-07T06:59:52;5.67;;;2.70;;
72635;SDS011;60679;48.888;15.544;2023-05-07T07:02:18;7.43;;;2.93;;
72635;SDS011;60679;48.888;15.544;2023-05-07T07:04:43;8.67;;;2.23;;
72635;SDS011;60679;48.888;15.544;2023-05-07T07:07:10;5.25;;;2.45;;
72635;SDS011;60679;48.888;15.544;2023-05-07T07:09:35;5.23;;;2.80;;
72635;SDS011;60679;48.888;15.544;2023-05-07T07:12:00;7.50;;;3.20;;
72635;SDS011;60679;48.888;15.544;2023-05-07T07:14:26;11.83;;;3.63;;
72635;SDS011;60679;48.888;15.544;2023-05-07T07:16:51;5.83;;;3.33;;
72635;SDS011;60679;48.888;15.544;2023-05-07T07:19:17;10.47;;;2.87;;
72635;SDS011;60679;48.888;15.544;2023-05-07T07:21:48;4.60;;;1.77;;
72635;SDS011;60679;48.888;15.544;2023-05-07T07:24:14;4.13;;;1.70;;
72635;SDS011;60679;48.888;15.544;2023-05-07T07:26:46;7.90;;;3.50;;
72635;SDS011;60679;48.888;15.544;2023-05-07T07:29:14;5.32;;;2.45;;
72635;SDS011;60679;48.888;15.544;2023-05-07T07:31:40;4.60;;;1.57;;
72635;SDS011;60679;48.888;15.544;2023-05-07T07:34:05;6.30;;;2.15;;
72635;SDS011;60679;48.888;15.544;2023-05-07T07:36:33;3.70;;;1.67;;
72635;SDS011;60679;48.888;15.544;2023-05-07T07:39:01;4.55;;;1.92;;
72635;SDS011;60679;48.888;15.544;2023-05-07T07:41:27;5.03;;;1.73;;
72635;SDS011;60679;48.888;15.544;2023-05-07T07:43:52;5.47;;;2.73;;
72635;SDS011;60679;48.888;15.544;2023-05-07T07:46:17;6.13;;;2.25;;
72635;SDS011;60679;48.888;15.544;2023-05-07T07:48:46;4.67;;;2.20;;
72635;SDS011;60679;48.888;15.544;2023-05-07T07:51:11;5.70;;;2.72;;
72635;SDS011;60679;48.888;15.544;2023-05-07T07:53:36;4.80;;;2.53;;
72635;SDS011;60679;48.888;15.544;2023-05-07T07:56:02;6.10;;;2.57;;
72635;SDS011;60679;48.888;15.544;2023-05-07T07:58:27;5.10;;;2.33;;
72635;SDS011;60679;48.888;15.544;2023-05-07T08:00:53;4.37;;;1.20;;
72635;SDS011;60679;48.888;15.544;2023-05-07T08:03:20;6.30;;;2.75;;
72635;SDS011;60679;48.888;15.544;2023-05-07T08:05:46;4.90;;;2.07;;
72635;SDS011;60679;48.888;15.544;2023-05-07T08:08:13;9.85;;;2.33;;
72635;SDS011;60679;48.888;15.544;2023-05-07T08:10:38;6.97;;;2.67;;
72635;SDS011;60679;48.888;15.544;2023-05-07T08:13:07;5.32;;;2.00;;
72635;SDS011;60679;48.888;15.544;2023-05-07T08:15:32;3.83;;;1.67;;
72635;SDS011;60679;48.888;15.544;2023-05-07T08:17:59;6.57;;;3.03;;
72635;SDS011;60679;48.888;15.544;2023-05-07T08:20:26;6.20;;;2.90;;
72635;SDS011;60679;48.888;15.544;2023-05-07T08:22:51;6.20;;;2.47;;
72635;SDS011;60679;48.888;15.544;2023-05-07T08:25:19;4.70;;;1.93;;
72635;SDS011;60679;48.888;15.544;2023-05-07T08:27:47;6.85;;;2.00;;
72635;SDS011;60679;48.888;15.544;2023-05-07T08:30:13;5.37;;;1.97;;
72635;SDS011;60679;48.888;15.544;2023-05-07T08:32:38;5.22;;;2.40;;
72635;SDS011;60679;48.888;15.544;2023-05-07T08:35:04;6.03;;;1.93;;
72635;SDS011;60679;48.888;15.544;2023-05-07T08:37:33;4.55;;;2.10;;
72635;SDS011;60679;48.888;15.544;2023-05-07T08:39:59;6.20;;;2.55;;
72635;SDS011;60679;48.888;15.544;2023-05-07T08:42:27;7.90;;;2.83;;
72635;SDS011;60679;48.888;15.544;2023-05-07T08:45:02;5.32;;;2.53;;
72635;SDS011;60679;48.888;15.544;2023-05-07T08:47:33;6.30;;;2.30;;
72635;SDS011;60679;48.888;15.544;2023-05-07T08:50:07;4.38;;;2.08;;
72635;SDS011;60679;48.888;15.544;2023-05-07T08:52:32;6.10;;;1.83;;
72635;SDS011;60679;48.888;15.544;2023-05-07T08:54:58;4.93;;;2.22;;
72635;SDS011;60679;48.888;15.544;2023-05-07T08:57:25;10.13;;;2.72;;
72635;SDS011;60679;48.888;15.544;2023-05-07T08:59:50;4.73;;;2.10;;
72635;SDS011;60679;48.888;15.544;2023-05-07T09:02:22;5.53;;;2.60;;
72635;SDS011;60679;48.888;15.544;2023-05-07T09:04:47;7.53;;;2.40;;
72635;SDS011;60679;48.888;15.544;2023-05-07T09:07:13;7.03;;;2.57;;
72635;SDS011;60679;48.888;15.544;2023-05-07T09:09:38;6.87;;;2.60;;
72635;SDS011;60679;48.888;15.544;2023-05-07T09:12:04;6.50;;;2.60;;
72635;SDS011;60679;48.888;15.544;2023-05-07T09:14:30;5.20;;;2.30;;
72635;SDS011;60679;48.888;15.544;2023-05-07T09:16:55;10.00;;;2.43;;
72635;SDS011;60679;48.888;15.544;2023-05-07T09:19:25;6.20;;;2.67;;
72635;SDS011;60679;48.888;15.544;2023-05-07T09:21:57;7.30;;;2.83;;
72635;SDS011;60679;48.888;15.544;2023-05-07T09:24:24;6.10;;;3.45;;
72635;SDS011;60679;48.888;15.544;2023-05-07T09:26:50;5.47;;;2.53;;
72635;SDS011;60679;48.888;15.544;2023-05-07T09:29:16;4.47;;;2.22;;
72635;SDS011;60679;48.888;15.544;2023-05-07T09:31:42;8.23;;;3.03;;
72635;SDS011;60679;48.888;15.544;2023-05-07T09:34:08;5.63;;;3.15;;
72635;SDS011;60679;48.888;15.544;2023-05-07T09:36:36;6.17;;;2.27;;
72635;SDS011;60679;48.888;15.544;2023-05-07T09:39:02;6.07;;;2.80;;
72635;SDS011;60679;48.888;15.544;2023-05-07T09:41:28;6.93;;;3.33;;
72635;SDS011;60679;48.888;15.544;2023-05-07T09:43:55;7.40;;;2.75;;
72635;SDS011;60679;48.888;15.544;2023-05-07T09:46:23;8.60;;;3.70;;
72635;SDS011;60679;48.888;15.544;2023-05-07T09:48:52;5.38;;;2.60;;
72635;SDS011;60679;48.888;15.544;2023-05-07T09:51:30;6.20;;;2.97;;
72635;SDS011;60679;48.888;15.544;2023-05-07T09:54:08;5.85;;;2.92;;
72635;SDS011;60679;48.888;15.544;2023-05-07T09:56:35;7.60;;;2.90;;
72635;SDS011;60679;48.888;15.544;2023-05-07T09:59:03;6.43;;;2.73;;
72635;SDS011;60679;48.888;15.544;2023-05-07T10:01:30;5.00;;;2.03;;
72635;SDS011;60679;48.888;15.544;2023-05-07T10:03:56;7.90;;;3.00;;
72635;SDS011;60679;48.888;15.544;2023-05-07T10:06:24;7.03;;;3.22;;
72635;SDS011;60679;48.888;15.544;2023-05-07T10:08:52;6.80;;;2.25;;
72635;SDS011;60679;48.888;15.544;2023-05-07T10:11:19;6.40;;;2.47;;
72635;SDS011;60679;48.888;15.544;2023-05-07T10:13:47;6.75;;;2.47;;
72635;SDS011;60679;48.888;15.544;2023-05-07T10:16:13;5.65;;;2.85;;
72635;SDS011;60679;48.888;15.544;2023-05-07T10:18:40;6.03;;;2.85;;
72635;SDS011;60679;48.888;15.544;2023-05-07T10:21:16;6.05;;;1.92;;
72635;SDS011;60679;48.888;15.544;2023-05-07T10:23:49;5.80;;;2.10;;
72635;SDS011;60679;48.888;15.544;2023-05-07T10:26:20;8.25;;;3.38;;
72635;SDS011;60679;48.888;15.544;2023-05-07T10:28:49;5.13;;;1.98;;
72635;SDS011;60679;48.888;15.544;2023-05-07T10:33:53;6.50;;;2.78;;
72635;SDS011;60679;48.888;15.544;2023-05-07T10:36:21;5.27;;;2.13;;
72635;SDS011;60679;48.888;15.544;2023-05-07T10:38:48;6.63;;;2.50;;
72635;SDS011;60679;48.888;15.544;2023-05-07T10:41:14;5.60;;;2.50;;
72635;SDS011;60679;48.888;15.544;2023-05-07T10:43:42;4.45;;;2.00;;
72635;SDS011;60679;48.888;15.544;2023-05-07T10:46:13;5.57;;;2.87;;
72635;SDS011;60679;48.888;15.544;2023-05-07T10:51:34;4.68;;;2.00;;
72635;SDS011;60679;48.888;15.544;2023-05-07T10:56:35;5.50;;;2.33;;
72635;SDS011;60679;48.888;15.544;2023-05-07T11:01:55;4.25;;;1.60;;
72635;SDS011;60679;48.888;15.544;2023-05-07T11:04:23;5.13;;;2.10;;
72635;SDS011;60679;48.888;15.544;2023-05-07T11:17:34;4.70;;;2.00;;
72635;SDS011;60679;48.888;15.544;2023-05-07T11:20:17;6.38;;;1.85;;
72635;SDS011;60679;48.888;15.544;2023-05-07T11:22:45;5.13;;;2.38;;
72635;SDS011;60679;48.888;15.544;2023-05-07T11:25:11;5.20;;;2.00;;
72635;SDS011;60679;48.888;15.544;2023-05-07T11:27:44;4.38;;;1.85;;
72635;SDS011;60679;48.888;15.544;2023-05-07T11:30:10;8.80;;;2.60;;
72635;SDS011;60679;48.888;15.544;2023-05-07T11:32:42;5.18;;;1.92;;
72635;SDS011;60679;48.888;15.544;2023-05-07T11:35:08;8.47;;;2.50;;
72635;SDS011;60679;48.888;15.544;2023-05-07T11:37:34;5.05;;;1.98;;
72635;SDS011;60679;48.888;15.544;2023-05-07T11:40:06;6.97;;;2.03;;
72635;SDS011;60679;48.888;15.544;2023-05-07T11:42:37;7.10;;;2.78;;
72635;SDS011;60679;48.888;15.544;2023-05-07T11:45:03;5.85;;;1.95;;
72635;SDS011;60679;48.888;15.544;2023-05-07T11:47:30;4.75;;;1.70;;
72635;SDS011;60679;48.888;15.544;2023-05-07T11:49:56;5.57;;;2.33;;
72635;SDS011;60679;48.888;15.544;2023-05-07T11:52:26;5.28;;;2.25;;
72635;SDS011;60679;48.888;15.544;2023-05-07T11:54:52;4.10;;;1.60;;
72635;SDS011;60679;48.888;15.544;2023-05-07T11:57:20;5.15;;;1.80;;
72635;SDS011;60679;48.888;15.544;2023-05-07T11:59:46;5.15;;;2.03;;
72635;SDS011;60679;48.888;15.544;2023-05-07T12:02:16;4.82;;;2.22;;
72635;SDS011;60679;48.888;15.544;2023-05-07T12:04:42;4.53;;;2.28;;
72635;SDS011;60679;48.888;15.544;2023-05-07T12:07:15;11.60;;;2.10;;
72635;SDS011;60679;48.888;15.544;2023-05-07T12:09:44;4.55;;;1.85;;
72635;SDS011;60679;48.888;15.544;2023-05-07T12:12:10;4.85;;;2.58;;
72635;SDS011;60679;48.888;15.544;2023-05-07T12:14:40;4.80;;;1.90;;
72635;SDS011;60679;48.888;15.544;2023-05-07T12:17:09;5.05;;;2.00;;
72635;SDS011;60679;48.888;15.544;2023-05-07T12:19:36;4.50;;;1.60;;
72635;SDS011;60679;48.888;15.544;2023-05-07T12:22:03;4.53;;;1.65;;
72635;SDS011;60679;48.888;15.544;2023-05-07T12:24:42;7.40;;;2.00;;
72635;SDS011;60679;48.888;15.544;2023-05-07T12:27:15;5.25;;;1.92;;
72635;SDS011;60679;48.888;15.544;2023-05-07T12:29:48;4.20;;;1.85;;
72635;SDS011;60679;48.888;15.544;2023-05-07T12:32:15;4.80;;;2.03;;
72635;SDS011;60679;48.888;15.544;2023-05-07T12:34:45;4.07;;;1.67;;
72635;SDS011;60679;48.888;15.544;2023-05-07T12:37:11;4.13;;;1.52;;
72635;SDS011;60679;48.888;15.544;2023-05-07T12:39:38;4.70;;;2.10;;
72635;SDS011;60679;48.888;15.544;2023-05-07T12:42:10;5.55;;;1.95;;
72635;SDS011;60679;48.888;15.544;2023-05-07T12:44:41;4.33;;;1.60;;
72635;SDS011;60679;48.888;15.544;2023-05-07T12:47:10;4.63;;;2.05;;
72635;SDS011;60679;48.888;15.544;2023-05-07T12:49:35;4.33;;;1.87;;
72635;SDS011;60679;48.888;15.544;2023-05-07T12:52:06;4.60;;;1.85;;
72635;SDS011;60679;48.888;15.544;2023-05-07T12:54:32;6.20;;;2.40;;
72635;SDS011;60679;48.888;15.544;2023-05-07T12:57:05;5.28;;;1.77;;
72635;SDS011;60679;48.888;15.544;2023-05-07T12:59:38;3.97;;;1.60;;
72635;SDS011;60679;48.888;15.544;2023-05-07T13:02:07;5.57;;;2.10;;
72635;SDS011;60679;48.888;15.544;2023-05-07T13:04:33;3.88;;;1.60;;
72635;SDS011;60679;48.888;15.544;2023-05-07T13:06:59;4.50;;;2.05;;
72635;SDS011;60679;48.888;15.544;2023-05-07T13:09:25;4.27;;;1.80;;
72635;SDS011;60679;48.888;15.544;2023-05-07T13:11:54;6.53;;;1.80;;
72635;SDS011;60679;48.888;15.544;2023-05-07T13:14:20;4.20;;;1.30;;
72635;SDS011;60679;48.888;15.544;2023-05-07T13:16:48;4.68;;;1.58;;
72635;SDS011;60679;48.888;15.544;2023-05-07T13:19:14;4.03;;;1.30;;
72635;SDS011;60679;48.888;15.544;2023-05-07T13:21:39;4.20;;;1.30;;
72635;SDS011;60679;48.888;15.544;2023-05-07T13:24:05;5.60;;;1.87;;
72635;SDS011;60679;48.888;15.544;2023-05-07T13:26:31;4.13;;;1.33;;
72635;SDS011;60679;48.888;15.544;2023-05-07T13:28:57;5.93;;;1.77;;
72635;SDS011;60679;48.888;15.544;2023-05-07T13:31:23;5.22;;;2.00;;
72635;SDS011;60679;48.888;15.544;2023-05-07T13:33:49;4.63;;;1.80;;
72635;SDS011;60679;48.888;15.544;2023-05-07T13:36:15;4.67;;;1.80;;
72635;SDS011;60679;48.888;15.544;2023-05-07T13:38:43;4.47;;;1.57;;
72635;SDS011;60679;48.888;15.544;2023-05-07T13:41:08;4.47;;;1.60;;
72635;SDS011;60679;48.888;15.544;2023-05-07T13:43:34;4.20;;;1.33;;
72635;SDS011;60679;48.888;15.544;2023-05-07T13:46:00;4.13;;;1.33;;
72635;SDS011;60679;48.888;15.544;2023-05-07T13:48:26;5.18;;;2.63;;
72635;SDS011;60679;48.888;15.544;2023-05-07T13:50:51;4.10;;;1.70;;
72635;SDS011;60679;48.888;15.544;2023-05-07T13:53:17;4.07;;;1.40;;
72635;SDS011;60679;48.888;15.544;2023-05-07T13:55:45;3.95;;;1.60;;
72635;SDS011;60679;48.888;15.544;2023-05-07T13:58:11;3.97;;;1.60;;
72635;SDS011;60679;48.888;15.544;2023-05-07T14:00:36;4.33;;;1.97;;
72635;SDS011;60679;48.888;15.544;2023-05-07T14:03:03;4.85;;;1.60;;
72635;SDS011;60679;48.888;15.544;2023-05-07T14:05:30;3.90;;;1.30;;
72635;SDS011;60679;48.888;15.544;2023-05-07T14:07:59;3.65;;;1.15;;
72635;SDS011;60679;48.888;15.544;2023-05-07T14:10:24;4.00;;;1.30;;
72635;SDS011;60679;48.888;15.544;2023-05-07T14:12:50;5.38;;;1.77;;
72635;SDS011;60679;48.888;15.544;2023-05-07T14:15:17;4.35;;;1.63;;
72635;SDS011;60679;48.888;15.544;2023-05-07T14:17:43;4.03;;;1.17;;
72635;SDS011;60679;48.888;15.544;2023-05-07T14:20:09;4.60;;;1.60;;
72635;SDS011;60679;48.888;15.544;2023-05-07T14:22:35;4.50;;;1.70;;
72635;SDS011;60679;48.888;15.544;2023-05-07T14:25:01;4.20;;;1.30;;
72635;SDS011;60679;48.888;15.544;2023-05-07T14:27:27;4.23;;;1.50;;
72635;SDS011;60679;48.888;15.544;2023-05-07T14:29:52;4.70;;;1.80;;
72635;SDS011;60679;48.888;15.544;2023-05-07T14:32:18;3.70;;;1.40;;
72635;SDS011;60679;48.888;15.544;2023-05-07T14:34:44;4.53;;;1.63;;
72635;SDS011;60679;48.888;15.544;2023-05-07T14:37:10;4.43;;;1.33;;
72635;SDS011;60679;48.888;15.544;2023-05-07T14:39:36;3.97;;;1.40;;
72635;SDS011;60679;48.888;15.544;2023-05-07T14:42:02;3.97;;;1.40;;
72635;SDS011;60679;48.888;15.544;2023-05-07T14:44:27;3.87;;;1.07;;
72635;SDS011;60679;48.888;15.544;2023-05-07T14:46:53;4.60;;;1.40;;
72635;SDS011;60679;48.888;15.544;2023-05-07T14:49:18;3.93;;;1.27;;
72635;SDS011;60679;48.888;15.544;2023-05-07T14:51:44;3.70;;;1.27;;